Stephenville, TX

8:04 AM CST on January 16, 2017 (GMT -0600)
Clark Municipal

Weather History for KSEP - July, 2013

Change the Weather History Date:

Wednesday, July 3, 2013

  Actual Average Record
Temperature  
Mean Temperature 75 °F -  
Max Temperature 91 °F 93 °F 104 °F (1980)
Min Temperature 60 °F 70 °F 52 °F (1924)
Cooling Degree Days 10    
Growing Degree Days 25 (Base 50)    
Moisture  
Dew Point 44 °F    
Average Humidity 34    
Maximum Humidity 63    
Minimum Humidity 17    
Precipitation  
Precipitation 0.00 in - - ()
Sea Level Pressure  
Sea Level Pressure 30.07 in    
Wind  
Wind Speed 2 mph (East)    
Max Wind Speed 12 mph    
Max Gust Speed 21 mph    
Visibility 10 miles    
Events      
Averages and records for this station are not official NWS values.
T = Trace of Precipitation, MM = Missing Value Source: NWS Daily Summary

Daily Weather History Graph

Daily Weather History Graph

Search for Another Location

Airport or City:

Trip Planner

Search our weather history database for the weather conditions in past years. The results will help you decide how hot, cold, wet, or windy it might be!

Date:

Astronomy

Jul. 03, 2013 Rise Set
Actual Time 6:30 AM CDT 8:43 PM CDT
Civil Twilight 6:02 AM CDT 9:11 PM CDT
Nautical Twilight 5:28 AM CDT 9:45 PM CDT
Astronomical Twilight 4:50 AM CDT 10:22 PM CDT
Moon 3:02 AM CDT (7/3) 5:00 PM CDT (7/3)
Length of Visible Light 15h 08m
Length of Day
14h 12m
Waning Crescent, 18% of the Moon is Illuminated
Jul 3
Waning Crescent
Jul 8
New
Jul 15
First Quarter
Jul 22
Full
Jul 29
Last Quarter

Hourly Weather History & Observations

Time (CDT) Temp. Dew Point Humidity Pressure Visibility Wind Dir Wind Speed Gust Speed Precip Events Conditions
12:15 AM 71.2 °F 43.3 °F 37% 30.12 in 10.0 mi Calm Calm - N/A   Unknown
12:35 AM 70.3 °F 43.5 °F 38% 30.12 in 10.0 mi Calm Calm - N/A   Unknown
12:55 AM 68.7 °F 44.4 °F 42% 30.12 in 10.0 mi Calm Calm - N/A   Unknown
1:15 AM 68.9 °F 44.4 °F 41% 30.11 in 10.0 mi Calm Calm - N/A   Unknown
1:35 AM 69.8 °F 44.4 °F 40% 30.11 in 10.0 mi Calm Calm - N/A   Unknown
1:55 AM 67.3 °F 46.4 °F 47% 30.11 in 10.0 mi Calm Calm - N/A   Unknown
2:15 AM 65.8 °F 46.6 °F 50% 30.11 in 10.0 mi Calm Calm - N/A   Unknown
2:35 AM 66.0 °F 47.5 °F 51% 30.10 in 10.0 mi Calm Calm - N/A   Unknown
2:55 AM 66.4 °F 46.9 °F 50% 30.11 in 10.0 mi Calm Calm - N/A   Unknown
3:15 AM 65.3 °F 48.0 °F 54% 30.10 in 10.0 mi Calm Calm - N/A   Unknown
3:35 AM 65.3 °F 48.0 °F 54% 30.10 in 10.0 mi Calm Calm - N/A   Unknown
3:55 AM 64.9 °F 47.3 °F 53% 30.10 in 10.0 mi Calm Calm - N/A   Unknown
4:15 AM 62.8 °F 47.3 °F 57% 30.09 in 10.0 mi Calm Calm - N/A   Unknown
4:35 AM 61.7 °F 47.8 °F 60% 30.09 in 10.0 mi Calm Calm - N/A   Unknown
4:55 AM 62.6 °F 47.5 °F 58% 30.09 in 10.0 mi Calm Calm - N/A   Unknown
5:15 AM 61.5 °F 47.8 °F 61% 30.09 in 10.0 mi Calm Calm - N/A   Unknown
5:35 AM 61.2 °F 47.5 °F 61% 30.09 in 10.0 mi Calm Calm - N/A   Unknown
5:55 AM 61.0 °F 47.3 °F 61% 30.09 in 10.0 mi Calm Calm - N/A   Unknown
6:15 AM 60.1 °F 47.3 °F 63% 30.09 in 10.0 mi Calm Calm - N/A   Unknown
6:35 AM 60.8 °F 46.4 °F 59% 30.09 in 10.0 mi Calm Calm - N/A   Unknown
6:55 AM 60.8 °F 46.4 °F 59% 30.09 in 10.0 mi Calm Calm - N/A   Unknown
7:15 AM 60.4 °F 46.9 °F 61% 30.09 in 10.0 mi Calm Calm - N/A   Unknown
7:35 AM 62.1 °F 47.5 °F 59% 30.10 in 10.0 mi Calm Calm - N/A   Unknown
7:55 AM 65.8 °F 49.5 °F 55% 30.11 in 10.0 mi Calm Calm - N/A   Unknown
8:15 AM 69.4 °F 48.4 °F 47% 30.11 in 10.0 mi Calm Calm - N/A   Unknown
8:35 AM 72.3 °F 48.7 °F 43% 30.11 in 10.0 mi Calm Calm - N/A   Unknown
8:55 AM 75.6 °F 45.1 °F 34% 30.12 in 10.0 mi Calm Calm - N/A   Unknown
9:15 AM 77.2 °F 47.7 °F 35% 30.12 in 10.0 mi SSE 3.5 mph - N/A   Unknown
9:35 AM 79.3 °F 46.2 °F 31% 30.12 in 10.0 mi Calm Calm - N/A   Unknown
9:55 AM 81.0 °F 46.0 °F 29% 30.12 in 10.0 mi Calm Calm - N/A   Unknown
10:15 AM 81.3 °F 45.3 °F 28% 30.12 in 10.0 mi Calm Calm - N/A   Unknown
10:35 AM 82.8 °F 42.1 °F 24% 30.12 in 10.0 mi ESE 5.8 mph - N/A   Unknown
10:55 AM 82.8 °F 42.8 °F 24% 30.11 in 10.0 mi Calm Calm - N/A   Unknown
11:15 AM 85.1 °F 41.9 °F 22% 30.11 in 10.0 mi East 4.6 mph - N/A   Unknown
11:35 AM 84.4 °F 41.5 °F 22% 30.11 in 10.0 mi Calm Calm - N/A   Unknown
11:55 AM 85.5 °F 41.2 °F 21% 30.11 in 10.0 mi Calm Calm - N/A   Unknown
12:15 PM 86.4 °F 41.2 °F 20% 30.10 in 10.0 mi ESE 6.9 mph - N/A   Unknown
12:35 PM 86.5 °F 40.8 °F 20% 30.10 in 10.0 mi NE 6.9 mph - N/A   Unknown
12:55 PM 86.7 °F 41.0 °F 20% 30.09 in 10.0 mi ESE 5.8 mph - N/A   Unknown
1:15 PM 87.4 °F 41.4 °F 20% 30.09 in 10.0 mi NE 8.1 mph - N/A   Unknown
1:35 PM 87.4 °F 41.4 °F 20% 30.08 in 10.0 mi Calm Calm - N/A   Unknown
1:55 PM 89.2 °F 39.2 °F 17% 30.07 in 10.0 mi North 4.6 mph - N/A   Unknown
2:15 PM 88.5 °F 39.4 °F 18% 30.06 in 10.0 mi NNE 11.5 mph 16.1 mph N/A   Unknown
2:35 PM 87.1 °F 40.5 °F 19% 30.06 in 10.0 mi ENE 3.5 mph - N/A   Unknown
2:55 PM 88.7 °F 40.5 °F 18% 30.05 in 10.0 mi Calm Calm - N/A   Unknown
3:15 PM 88.3 °F 40.1 °F 18% 30.05 in 10.0 mi ENE 9.2 mph 17.3 mph N/A   Unknown
3:35 PM 88.3 °F 39.9 °F 18% 30.04 in 10.0 mi NE 10.4 mph 20.7 mph N/A   Unknown
3:55 PM 90.5 °F 40.6 °F 17% 30.03 in 10.0 mi ENE 11.5 mph 16.1 mph N/A   Unknown
4:15 PM 89.6 °F 39.9 °F 17% 30.02 in 10.0 mi NE 3.5 mph 9.2 mph N/A   Unknown
4:35 PM 89.4 °F 40.5 °F 18% 30.01 in 10.0 mi NE 9.2 mph - N/A   Unknown
4:55 PM 88.7 °F 40.6 °F 19% 30.02 in 10.0 mi NNE 11.5 mph - N/A   Unknown
5:15 PM 88.3 °F 40.1 °F 18% 30.01 in 10.0 mi East 5.8 mph - N/A   Unknown
5:35 PM 89.4 °F 40.5 °F 18% 30.00 in 10.0 mi East 8.1 mph - N/A   Unknown
5:55 PM 89.8 °F 39.6 °F 17% 30.00 in 10.0 mi ESE 4.6 mph - N/A   Unknown
6:15 PM 89.8 °F 40.6 °F 18% 30.00 in 10.0 mi ENE 11.5 mph - N/A   Unknown
6:35 PM 88.7 °F 40.1 °F 18% 29.99 in 10.0 mi NE 9.2 mph - N/A   Unknown
6:55 PM 87.4 °F 40.1 °F 19% 29.99 in 10.0 mi East 9.2 mph - N/A   Unknown
7:15 PM 87.1 °F 40.1 °F 19% 29.99 in 10.0 mi East 6.9 mph - N/A   Unknown
7:35 PM 85.6 °F 41.0 °F 21% 29.99 in 10.0 mi ENE 5.8 mph - N/A   Unknown
7:55 PM 85.1 °F 40.8 °F 21% 29.99 in 10.0 mi East 8.1 mph - N/A   Unknown
8:15 PM 83.3 °F 41.4 °F 23% 29.99 in 10.0 mi East 5.8 mph - N/A   Unknown
8:35 PM 81.7 °F 41.9 °F 24% 29.99 in 10.0 mi East 3.5 mph - N/A   Unknown
8:55 PM 79.3 °F 42.1 °F 27% 29.99 in 10.0 mi ESE 4.6 mph - N/A   Unknown
9:15 PM 78.8 °F 42.3 °F 27% 30.00 in 10.0 mi East 3.5 mph - N/A   Unknown
9:35 PM 77.9 °F 41.9 °F 28% 30.00 in 10.0 mi East 4.6 mph - N/A   Unknown
9:55 PM 77.9 °F 41.7 °F 27% 30.01 in 10.0 mi ESE 5.8 mph - N/A   Unknown
10:15 PM 77.9 °F 42.1 °F 28% 30.01 in 10.0 mi ESE 5.8 mph - N/A   Unknown
10:35 PM 78.3 °F 42.4 °F 28% 30.01 in 10.0 mi ESE 5.8 mph - N/A   Unknown
10:55 PM 77.4 °F 42.8 °F 29% 30.02 in 10.0 mi East 6.9 mph - N/A   Unknown
11:15 PM 76.1 °F 43.2 °F 31% 30.02 in 10.0 mi East 5.8 mph - N/A   Unknown
11:35 PM 74.8 °F 43.9 °F 33% 30.02 in 10.0 mi East 4.6 mph - N/A   Unknown
11:55 PM 75.4 °F 44.1 °F 33% 30.03 in 10.0 mi East 6.9 mph - N/A   Unknown